Time;durP1;ratioP1;P1;durP2;ratioP2;P2;SDS_P1;SDS_P2;PMS_P1;PMS_P2;Temp;Humidity;BMP_temperature;BMP_pressure;BME280_temperature;BME280_humidity;BME280_pressure;Samples;Min_cycle;Max_cycle;Signal;HPM_P1;HPM_P2
2020/12/19 00:00:46;;;;;;;15.53;11.90;;;;;;;;;;5042048;28;20806;-67
2020/12/19 00:03:11;;;;;;;16.87;12.13;;;;;;;;;;5042331;28;20336;-67
2020/12/19 00:05:37;;;;;;;17.93;11.73;;;;;;;;;;5041242;28;20212;-67
2020/12/19 00:08:03;;;;;;;19.43;11.67;;;;;;;;;;5042162;28;20222;-67
2020/12/19 00:10:28;;;;;;;15.60;11.07;;;;;;;;;;5042233;28;20222;-67
2020/12/19 00:12:59;;;;;;;17.40;12.40;;;;;;;;;;5041839;28;20283;-67
2020/12/19 00:15:24;;;;;;;16.97;11.90;;;;;;;;;;5040909;28;20206;-67
2020/12/19 00:17:50;;;;;;;19.90;13.33;;;;;;;;;;5042001;28;20663;-67
2020/12/19 00:20:15;;;;;;;16.40;12.23;;;;;;;;;;5041308;28;21066;-67
2020/12/19 00:22:42;;;;;;;15.10;11.27;;;;;;;;;;5041749;28;20278;-66
2020/12/19 00:25:08;;;;;;;16.37;11.60;;;;;;;;;;5041140;28;20211;-66
2020/12/19 00:27:33;;;;;;;17.13;11.97;;;;;;;;;;5040849;28;20184;-67
2020/12/19 00:29:58;;;;;;;16.43;11.67;;;;;;;;;;5041144;28;20577;-66
2020/12/19 00:32:24;;;;;;;16.70;11.93;;;;;;;;;;5041583;28;20287;-66
2020/12/19 00:34:49;;;;;;;16.87;11.03;;;;;;;;;;5056239;28;20723;-67
2020/12/19 00:37:14;;;;;;;17.63;11.30;;;;;;;;;;5040782;28;20197;-67
2020/12/19 00:39:39;;;;;;;16.67;10.97;;;;;;;;;;5041250;28;20213;-66
2020/12/19 00:42:05;;;;;;;17.27;11.90;;;;;;;;;;5040910;28;20208;-67
2020/12/19 00:44:30;;;;;;;15.83;11.03;;;;;;;;;;5056135;28;20230;-67
2020/12/19 00:46:55;;;;;;;16.57;11.70;;;;;;;;;;5040647;28;20293;-67
2020/12/19 00:49:20;;;;;;;16.17;10.60;;;;;;;;;;5040831;28;20211;-67
2020/12/19 00:51:46;;;;;;;14.73;11.30;;;;;;;;;;5041027;28;20198;-67
2020/12/19 00:54:11;;;;;;;15.80;11.17;;;;;;;;;;5041233;28;20198;-67
2020/12/19 00:56:36;;;;;;;16.97;12.17;;;;;;;;;;5040095;28;20560;-67
2020/12/19 00:59:02;;;;;;;17.37;11.43;;;;;;;;;;5040573;28;20217;-66
2020/12/19 01:01:27;;;;;;;15.20;11.50;;;;;;;;;;5056229;28;20189;-67
2020/12/19 01:03:54;;;;;;;16.37;12.03;;;;;;;;;;5041492;28;20255;-67
2020/12/19 01:06:19;;;;;;;15.10;10.93;;;;;;;;;;5039521;28;20209;-66
2020/12/19 01:08:46;;;;;;;16.40;11.43;;;;;;;;;;5041166;28;20185;-66
2020/12/19 01:11:15;;;;;;;19.17;11.90;;;;;;;;;;5040283;28;20191;-66
2020/12/19 01:13:41;;;;;;;17.50;12.40;;;;;;;;;;5040211;28;20219;-65
2020/12/19 01:16:06;;;;;;;16.50;11.30;;;;;;;;;;5039476;28;20189;-67
2020/12/19 01:18:31;;;;;;;14.50;11.37;;;;;;;;;;5039816;28;20192;-66
2020/12/19 01:20:57;;;;;;;17.57;11.70;;;;;;;;;;5039703;28;20279;-67
2020/12/19 01:23:22;;;;;;;16.03;11.73;;;;;;;;;;5039028;28;20192;-66
2020/12/19 01:25:47;;;;;;;18.10;11.20;;;;;;;;;;5039367;28;20223;-65
2020/12/19 01:28:12;;;;;;;18.97;12.50;;;;;;;;;;5055508;28;20238;-64
2020/12/19 01:30:38;;;;;;;18.27;12.10;;;;;;;;;;5039738;28;20700;-66
2020/12/19 01:33:03;;;;;;;15.97;11.17;;;;;;;;;;5040009;28;20181;-66
2020/12/19 01:35:28;;;;;;;16.67;11.47;;;;;;;;;;5038708;28;20198;-66
2020/12/19 01:37:54;;;;;;;16.57;11.27;;;;;;;;;;5039100;28;20707;-65
2020/12/19 01:40:19;;;;;;;16.97;11.77;;;;;;;;;;5037962;28;20434;-66
2020/12/19 01:42:44;;;;;;;17.87;11.73;;;;;;;;;;5039214;28;20205;-65
2020/12/19 01:45:10;;;;;;;18.03;11.97;;;;;;;;;;5038535;28;20232;-66
2020/12/19 01:47:35;;;;;;;17.40;12.57;;;;;;;;;;5040029;28;20701;-66
2020/12/19 01:50:04;;;;;;;14.90;11.47;;;;;;;;;;5039357;28;20208;-66
2020/12/19 01:52:29;;;;;;;16.67;11.67;;;;;;;;;;5039361;28;20216;-66
2020/12/19 01:54:57;;;;;;;16.27;11.97;;;;;;;;;;5039714;28;20705;-66
2020/12/19 01:57:24;;;;;;;16.57;11.87;;;;;;;;;;5038768;28;20190;-66
2020/12/19 01:59:49;;;;;;;16.27;11.93;;;;;;;;;;5039017;28;20924;-66
2020/12/19 02:02:16;;;;;;;16.63;11.73;;;;;;;;;;5038855;28;20273;-66
2020/12/19 02:04:41;;;;;;;17.00;11.93;;;;;;;;;;5038442;28;20210;-65
2020/12/19 02:07:07;;;;;;;17.20;12.17;;;;;;;;;;5038119;28;20326;-66
2020/12/19 02:09:37;;;;;;;16.67;11.90;;;;;;;;;;5039420;28;20222;-65
2020/12/19 02:12:02;;;;;;;15.63;11.50;;;;;;;;;;5038538;28;20762;-66
2020/12/19 02:14:28;;;;;;;16.37;11.60;;;;;;;;;;5038901;28;20193;-66
2020/12/19 02:16:58;;;;;;;16.53;10.83;;;;;;;;;;5038209;28;20192;-65
2020/12/19 02:19:24;;;;;;;15.17;11.10;;;;;;;;;;5038041;28;20221;-66
2020/12/19 02:21:49;;;;;;;15.23;11.13;;;;;;;;;;5037449;28;20213;-65
2020/12/19 02:24:14;;;;;;;14.47;11.50;;;;;;;;;;5039181;28;20188;-65
2020/12/19 02:26:40;;;;;;;16.23;12.47;;;;;;;;;;5037909;28;20261;-65
2020/12/19 02:29:05;;;;;;;16.17;11.93;;;;;;;;;;5038625;28;20213;-66
2020/12/19 02:31:31;;;;;;;14.37;11.50;;;;;;;;;;5037445;28;20186;-65
2020/12/19 02:33:56;;;;;;;15.10;11.83;;;;;;;;;;5038433;28;20528;-65
2020/12/19 02:36:21;;;;;;;15.73;11.10;;;;;;;;;;5038283;28;20192;-65
2020/12/19 02:38:46;;;;;;;16.83;11.47;;;;;;;;;;5038932;28;20196;-66
2020/12/19 02:41:12;;;;;;;16.23;12.03;;;;;;;;;;5053545;28;20211;-65
2020/12/19 02:43:37;;;;;;;15.63;10.80;;;;;;;;;;5039268;28;20194;-65
2020/12/19 02:46:02;;;;;;;16.40;12.23;;;;;;;;;;5037903;28;20209;-65
2020/12/19 02:48:28;;;;;;;15.27;11.47;;;;;;;;;;5036935;28;20561;-64
2020/12/19 02:50:53;;;;;;;18.27;11.87;;;;;;;;;;5042230;28;20200;-65
2020/12/19 02:53:19;;;;;;;14.93;10.97;;;;;;;;;;5042095;28;20181;-65
2020/12/19 02:55:44;;;;;;;14.57;10.60;;;;;;;;;;5041799;28;20198;-65
2020/12/19 02:58:09;;;;;;;16.00;11.53;;;;;;;;;;5042663;28;20197;-65
2020/12/19 03:00:35;;;;;;;15.30;11.90;;;;;;;;;;5041915;28;20232;-65
2020/12/19 03:03:00;;;;;;;15.73;11.33;;;;;;;;;;5041841;28;20189;-64
2020/12/19 03:05:25;;;;;;;16.27;11.27;;;;;;;;;;5041649;28;20278;-65
2020/12/19 03:07:51;;;;;;;16.07;11.70;;;;;;;;;;5042528;28;20205;-65
2020/12/19 03:10:16;;;;;;;15.97;11.03;;;;;;;;;;5057350;28;20969;-65
2020/12/19 03:12:41;;;;;;;16.00;11.30;;;;;;;;;;5035867;28;20210;-65
2020/12/19 03:15:06;;;;;;;16.80;11.40;;;;;;;;;;5041681;28;20295;-65
2020/12/19 03:17:32;;;;;;;15.57;11.47;;;;;;;;;;5042752;28;20243;-65
2020/12/19 03:19:57;;;;;;;17.17;11.57;;;;;;;;;;5043597;28;20225;-66
2020/12/19 03:22:22;;;;;;;15.93;10.97;;;;;;;;;;5042442;28;20191;-65
2020/12/19 03:24:48;;;;;;;14.00;10.30;;;;;;;;;;5041860;28;20193;-65
2020/12/19 03:27:13;;;;;;;15.17;11.43;;;;;;;;;;5042076;28;20717;-65
2020/12/19 03:29:38;;;;;;;16.77;11.13;;;;;;;;;;5042613;28;20214;-65
2020/12/19 03:32:03;;;;;;;17.33;12.33;;;;;;;;;;5042114;28;20269;-65
2020/12/19 03:34:29;;;;;;;15.30;11.57;;;;;;;;;;5042323;28;20176;-65
2020/12/19 03:36:54;;;;;;;16.10;11.13;;;;;;;;;;5042310;28;20920;-65
2020/12/19 03:39:19;;;;;;;14.93;10.90;;;;;;;;;;5042148;28;20223;-65
2020/12/19 03:41:44;;;;;;;15.73;11.20;;;;;;;;;;5041334;28;20230;-64
2020/12/19 03:44:10;;;;;;;16.43;11.70;;;;;;;;;;5041116;28;20183;-65
2020/12/19 03:46:35;;;;;;;17.03;11.77;;;;;;;;;;5040697;28;20282;-65
2020/12/19 03:49:00;;;;;;;17.43;11.77;;;;;;;;;;5041035;28;20214;-65
2020/12/19 03:51:26;;;;;;;15.90;11.40;;;;;;;;;;5041232;28;20242;-65
2020/12/19 03:53:51;;;;;;;12.07;8.87;;;;;;;;;;5041153;28;20195;-65
2020/12/19 03:56:16;;;;;;;17.07;11.03;;;;;;;;;;5040417;28;20200;-65
2020/12/19 03:58:41;;;;;;;16.27;11.33;;;;;;;;;;5041997;28;20186;-65
2020/12/19 04:01:07;;;;;;;14.67;10.83;;;;;;;;;;5040553;28;20623;-65
2020/12/19 04:03:32;;;;;;;15.90;11.90;;;;;;;;;;5042424;28;20196;-65
2020/12/19 04:05:57;;;;;;;17.50;10.83;;;;;;;;;;5041797;28;20218;-65
2020/12/19 04:08:23;;;;;;;17.30;11.27;;;;;;;;;;5042495;28;20188;-65
2020/12/19 04:10:48;;;;;;;14.27;10.57;;;;;;;;;;5042851;28;20217;-65
2020/12/19 04:13:13;;;;;;;18.63;12.97;;;;;;;;;;5042206;28;20208;-65
2020/12/19 04:15:39;;;;;;;15.60;11.53;;;;;;;;;;5056684;28;20191;-65
2020/12/19 04:18:04;;;;;;;16.00;12.17;;;;;;;;;;5041979;28;20192;-65
2020/12/19 04:20:29;;;;;;;16.00;11.10;;;;;;;;;;5041903;28;20213;-65
2020/12/19 04:22:54;;;;;;;15.33;11.40;;;;;;;;;;5042055;28;20903;-65
2020/12/19 04:25:20;;;;;;;15.87;10.97;;;;;;;;;;5040246;28;20232;-65
2020/12/19 04:27:45;;;;;;;15.47;11.83;;;;;;;;;;5041889;28;20183;-65
2020/12/19 04:30:10;;;;;;;16.33;11.43;;;;;;;;;;5041245;28;20218;-65
2020/12/19 04:32:36;;;;;;;17.43;12.03;;;;;;;;;;5040668;28;20188;-65
2020/12/19 04:35:01;;;;;;;17.37;11.17;;;;;;;;;;5040695;28;20969;-65
2020/12/19 04:37:26;;;;;;;16.30;11.17;;;;;;;;;;5041347;28;20240;-65
2020/12/19 04:39:52;;;;;;;17.70;12.33;;;;;;;;;;5041355;28;20778;-66
2020/12/19 04:42:19;;;;;;;15.00;11.00;;;;;;;;;;5041395;28;20230;-65
2020/12/19 04:44:45;;;;;;;16.17;11.33;;;;;;;;;;5041001;28;20858;-65
2020/12/19 04:47:11;;;;;;;16.97;11.40;;;;;;;;;;5040174;28;20188;-65
2020/12/19 04:49:36;;;;;;;14.97;11.23;;;;;;;;;;5039879;28;21056;-65
2020/12/19 04:52:02;;;;;;;15.97;11.53;;;;;;;;;;5056650;28;20734;-65
2020/12/19 04:54:28;;;;;;;15.50;11.53;;;;;;;;;;5041090;28;20202;-65
2020/12/19 04:56:55;;;;;;;16.93;11.77;;;;;;;;;;5040550;28;20175;-65
2020/12/19 04:59:20;;;;;;;16.93;11.50;;;;;;;;;;5040654;28;20215;-65
2020/12/19 05:01:45;;;;;;;17.90;11.87;;;;;;;;;;5040550;28;20187;-65
2020/12/19 05:04:13;;;;;;;16.07;11.10;;;;;;;;;;5040831;28;20274;-65
2020/12/19 05:06:39;;;;;;;17.20;12.00;;;;;;;;;;5039762;28;20240;-65
2020/12/19 05:09:04;;;;;;;14.83;11.00;;;;;;;;;;5040415;28;20310;-66
2020/12/19 05:11:29;;;;;;;17.53;10.90;;;;;;;;;;5040418;28;20176;-65
2020/12/19 05:13:55;;;;;;;16.90;11.40;;;;;;;;;;5040186;28;20180;-65
2020/12/19 05:16:20;;;;;;;15.80;11.00;;;;;;;;;;5038570;28;20203;-65
2020/12/19 05:18:45;;;;;;;15.40;11.43;;;;;;;;;;5040834;28;20188;-65
2020/12/19 05:21:11;;;;;;;14.90;10.43;;;;;;;;;;5040487;28;20191;-65
2020/12/19 05:23:38;;;;;;;15.83;11.50;;;;;;;;;;5040070;28;20213;-65
2020/12/19 05:26:04;;;;;;;15.63;10.87;;;;;;;;;;5039370;28;20611;-65
2020/12/19 05:28:31;;;;;;;15.30;10.80;;;;;;;;;;5040409;28;20565;-65
2020/12/19 05:30:58;;;;;;;13.67;10.60;;;;;;;;;;5037989;28;20207;-65
2020/12/19 05:33:23;;;;;;;18.53;11.80;;;;;;;;;;5039789;28;20203;-65
2020/12/19 05:35:48;;;;;;;15.67;10.80;;;;;;;;;;5039830;28;20769;-65
2020/12/19 05:38:14;;;;;;;13.33;9.87;;;;;;;;;;5039888;28;20182;-67
2020/12/19 05:40:39;;;;;;;14.13;9.10;;;;;;;;;;5040103;28;20213;-66
2020/12/19 05:43:05;;;;;;;13.07;8.63;;;;;;;;;;5039589;28;20578;-65
2020/12/19 05:45:30;;;;;;;14.53;10.40;;;;;;;;;;5038589;28;20225;-64
2020/12/19 05:47:55;;;;;;;17.80;10.90;;;;;;;;;;5040468;28;20288;-67
2020/12/19 05:50:21;;;;;;;13.97;10.30;;;;;;;;;;5040658;28;20239;-67
2020/12/19 05:52:47;;;;;;;14.63;10.93;;;;;;;;;;5039876;28;20561;-68
2020/12/19 05:55:14;;;;;;;13.73;9.93;;;;;;;;;;5039356;28;20194;-68
2020/12/19 05:57:39;;;;;;;14.23;10.43;;;;;;;;;;5055418;28;20190;-63
2020/12/19 06:00:09;;;;;;;15.13;9.97;;;;;;;;;;5039050;28;21078;-64
2020/12/19 06:02:35;;;;;;;14.83;9.73;;;;;;;;;;5039521;28;20267;-64
2020/12/19 06:05:01;;;;;;;14.40;10.00;;;;;;;;;;5037759;28;20221;-64
2020/12/19 06:07:34;;;;;;;13.20;10.13;;;;;;;;;;5039091;28;20185;-63
2020/12/19 06:09:59;;;;;;;14.77;10.53;;;;;;;;;;5039975;28;20212;-64
2020/12/19 06:12:36;;;;;;;14.13;10.10;;;;;;;;;;5039684;28;20243;-64
2020/12/19 06:15:02;;;;;;;16.23;10.40;;;;;;;;;;5036537;28;20236;-63
2020/12/19 06:17:46;;;;;;;13.60;9.07;;;;;;;;;;5039167;28;20299;-64
2020/12/19 06:20:11;;;;;;;13.90;10.47;;;;;;;;;;5039816;28;20296;-62
2020/12/19 06:22:37;;;;;;;16.60;11.13;;;;;;;;;;5037459;28;20195;-68
2020/12/19 06:25:02;;;;;;;14.23;9.60;;;;;;;;;;5040584;28;20285;-68
2020/12/19 06:27:27;;;;;;;14.33;10.17;;;;;;;;;;5043367;28;20191;-63
2020/12/19 06:29:53;;;;;;;12.97;9.40;;;;;;;;;;5056567;28;20201;-64
2020/12/19 06:32:22;;;;;;;13.97;8.80;;;;;;;;;;5043124;28;20186;-65
2020/12/19 06:35:00;;;;;;;15.80;10.60;;;;;;;;;;5043563;28;20638;-64
2020/12/19 06:37:27;;;;;;;13.97;10.53;;;;;;;;;;5041820;28;20289;-68
2020/12/19 06:40:11;;;;;;;13.93;9.30;;;;;;;;;;5043623;28;21105;-66
2020/12/19 06:42:36;;;;;;;13.40;10.13;;;;;;;;;;5039277;28;20296;-66
2020/12/19 06:45:21;;;;;;;14.47;10.30;;;;;;;;;;5041661;28;20225;-65
2020/12/19 06:47:47;;;;;;;15.27;11.00;;;;;;;;;;5030518;28;20213;-66
2020/12/19 06:50:12;;;;;;;15.37;10.43;;;;;;;;;;5042708;28;20266;-66
2020/12/19 06:52:38;;;;;;;16.00;10.70;;;;;;;;;;5042498;28;20193;-66
2020/12/19 06:55:19;;;;;;;14.63;10.37;;;;;;;;;;5040265;28;20592;-66
2020/12/19 06:57:51;;;;;;;14.73;10.10;;;;;;;;;;5041188;28;20201;-66
2020/12/19 07:00:17;;;;;;;14.03;10.73;;;;;;;;;;5041896;28;20207;-63
2020/12/19 07:02:59;;;;;;;12.13;8.90;;;;;;;;;;5042836;28;20180;-64
2020/12/19 07:05:29;;;;;;;14.47;9.63;;;;;;;;;;5042303;28;21109;-64
2020/12/19 07:08:14;;;;;;;15.33;10.60;;;;;;;;;;5041184;28;20230;-64
2020/12/19 07:10:39;;;;;;;15.60;10.63;;;;;;;;;;5043454;28;20680;-65
2020/12/19 07:13:05;;;;;;;14.10;10.57;;;;;;;;;;5046741;28;20175;-65
2020/12/19 07:15:43;;;;;;;15.47;10.33;;;;;;;;;;5044916;28;20976;-64
2020/12/19 07:18:29;;;;;;;13.23;10.53;;;;;;;;;;5046137;28;20188;-66
2020/12/19 07:21:02;;;;;;;15.57;10.93;;;;;;;;;;5049775;28;20679;-65
2020/12/19 07:23:28;;;;;;;14.53;10.37;;;;;;;;;;5047624;28;20211;-65
2020/12/19 07:25:53;;;;;;;15.47;10.47;;;;;;;;;;5045004;28;20218;-64
2020/12/19 07:28:18;;;;;;;15.17;10.53;;;;;;;;;;5043301;28;20198;-64
2020/12/19 07:30:44;;;;;;;14.67;10.43;;;;;;;;;;5045133;28;20196;-64
2020/12/19 07:33:09;;;;;;;16.07;10.97;;;;;;;;;;5045549;28;20268;-64
2020/12/19 07:35:35;;;;;;;15.33;10.60;;;;;;;;;;5038266;28;20189;-65
2020/12/19 07:38:01;;;;;;;16.20;10.97;;;;;;;;;;5046279;28;20655;-64
2020/12/19 07:40:27;;;;;;;16.53;11.13;;;;;;;;;;5045159;28;20303;-64
2020/12/19 07:43:06;;;;;;;14.87;10.87;;;;;;;;;;5040893;28;20299;-64
2020/12/19 07:45:31;;;;;;;16.27;11.40;;;;;;;;;;5042515;28;20202;-63
2020/12/19 07:47:57;;;;;;;13.50;10.53;;;;;;;;;;5045970;28;21023;-63
2020/12/19 07:50:25;;;;;;;14.90;11.47;;;;;;;;;;5038416;28;20213;-63
2020/12/19 07:53:01;;;;;;;16.00;12.23;;;;;;;;;;5045746;28;20185;-62
2020/12/19 07:55:27;;;;;;;14.40;10.83;;;;;;;;;;5044169;28;20221;-65
2020/12/19 07:57:53;;;;;;;15.03;11.13;;;;;;;;;;5045247;28;20193;-63
2020/12/19 08:00:18;;;;;;;15.37;10.83;;;;;;;;;;5042514;28;20218;-64
2020/12/19 08:02:44;;;;;;;16.03;10.77;;;;;;;;;;5045242;28;20651;-63
2020/12/19 08:05:11;;;;;;;11.13;8.43;;;;;;;;;;5044753;28;20209;-63
2020/12/19 08:07:37;;;;;;;13.23;10.13;;;;;;;;;;5045405;28;20287;-64
2020/12/19 08:10:04;;;;;;;13.60;9.77;;;;;;;;;;5045876;28;20307;-66
2020/12/19 08:12:30;;;;;;;13.67;10.27;;;;;;;;;;5044468;28;20278;-66
2020/12/19 08:14:55;;;;;;;13.47;10.80;;;;;;;;;;5071379;28;20279;-66
2020/12/19 08:17:21;;;;;;;14.80;10.50;;;;;;;;;;5042904;28;20269;-65
2020/12/19 08:19:48;;;;;;;14.40;10.87;;;;;;;;;;5044150;28;20239;-67
2020/12/19 08:22:13;;;;;;;14.90;11.23;;;;;;;;;;5049568;28;20580;-65
2020/12/19 08:24:39;;;;;;;13.53;11.03;;;;;;;;;;5045985;28;20273;-66
2020/12/19 08:27:33;;;;;;;12.80;11.00;;;;;;;;;;5037791;28;20219;-64
2020/12/19 08:30:08;;;;;;;14.40;10.97;;;;;;;;;;5039066;28;20720;-69
2020/12/19 08:32:34;;;;;;;13.10;10.47;;;;;;;;;;5044522;28;20187;-64
2020/12/19 08:34:59;;;;;;;12.67;9.93;;;;;;;;;;5038296;28;20187;-63
2020/12/19 08:37:25;;;;;;;12.20;9.87;;;;;;;;;;5044538;28;20238;-64
2020/12/19 08:40:03;;;;;;;13.27;10.70;;;;;;;;;;5045828;28;20207;-64
2020/12/19 08:42:29;;;;;;;13.57;10.10;;;;;;;;;;5038813;28;20201;-64
2020/12/19 08:45:10;;;;;;;12.77;10.37;;;;;;;;;;5044249;28;20178;-63
2020/12/19 08:47:36;;;;;;;12.77;10.57;;;;;;;;;;5044367;28;20204;-66
2020/12/19 08:50:02;;;;;;;10.97;9.30;;;;;;;;;;5045142;28;20731;-66
2020/12/19 08:52:28;;;;;;;12.77;9.30;;;;;;;;;;5044282;28;20211;-66
2020/12/19 08:54:57;;;;;;;13.20;9.07;;;;;;;;;;5043723;28;20226;-64
2020/12/19 08:57:26;;;;;;;11.60;9.40;;;;;;;;;;5043001;28;20186;-64
2020/12/19 08:59:51;;;;;;;11.63;9.23;;;;;;;;;;5043348;28;20225;-64
2020/12/19 09:02:16;;;;;;;11.13;9.57;;;;;;;;;;5044713;28;20190;-64
2020/12/19 09:04:48;;;;;;;10.77;9.00;;;;;;;;;;5044914;28;20228;-64
2020/12/19 09:07:13;;;;;;;11.40;9.23;;;;;;;;;;5044255;28;20193;-62
2020/12/19 09:09:38;;;;;;;12.80;10.23;;;;;;;;;;5045169;28;20222;-66
2020/12/19 09:12:08;;;;;;;12.63;10.00;;;;;;;;;;5045157;28;20186;-67
2020/12/19 09:14:33;;;;;;;13.03;10.30;;;;;;;;;;5036730;28;20669;-67
2020/12/19 09:16:58;;;;;;;11.27;9.67;;;;;;;;;;5043766;28;20230;-67
2020/12/19 09:19:23;;;;;;;11.93;9.47;;;;;;;;;;5044385;28;20208;-67
2020/12/19 09:21:52;;;;;;;11.23;8.50;;;;;;;;;;5042831;28;20719;-66
2020/12/19 09:24:18;;;;;;;10.40;9.23;;;;;;;;;;5044226;28;20195;-66
2020/12/19 09:26:43;;;;;;;12.37;9.27;;;;;;;;;;5043445;28;20626;-67
2020/12/19 09:29:09;;;;;;;11.00;9.37;;;;;;;;;;5042736;28;20765;-65
2020/12/19 09:31:34;;;;;;;11.90;8.43;;;;;;;;;;5036948;28;20246;-71
2020/12/19 09:33:59;;;;;;;11.33;9.20;;;;;;;;;;5069623;28;20200;-66
2020/12/19 09:36:25;;;;;;;10.70;8.63;;;;;;;;;;5034989;28;20200;-65
2020/12/19 09:38:50;;;;;;;11.53;8.30;;;;;;;;;;5043805;28;20191;-64
2020/12/19 09:41:15;;;;;;;11.67;8.10;;;;;;;;;;5043424;28;20745;-66
2020/12/19 09:43:40;;;;;;;11.23;7.47;;;;;;;;;;5043618;28;20289;-66
2020/12/19 09:46:06;;;;;;;8.30;6.90;;;;;;;;;;5042319;28;20211;-66
2020/12/19 09:48:31;;;;;;;9.90;8.17;;;;;;;;;;5043572;28;20198;-68
2020/12/19 09:50:56;;;;;;;8.20;7.27;;;;;;;;;;5043184;28;20234;-67
2020/12/19 09:53:22;;;;;;;9.67;7.87;;;;;;;;;;5041599;28;20794;-67
2020/12/19 09:55:47;;;;;;;9.70;7.70;;;;;;;;;;5042451;28;20190;-65
2020/12/19 09:58:13;;;;;;;7.97;7.07;;;;;;;;;;5042585;28;20184;-61
2020/12/19 10:00:39;;;;;;;7.90;7.00;;;;;;;;;;5042498;28;20212;-67
2020/12/19 10:03:04;;;;;;;9.37;6.47;;;;;;;;;;5058703;28;20197;-66
2020/12/19 10:05:31;;;;;;;9.10;7.00;;;;;;;;;;5039674;28;20201;-67
2020/12/19 10:07:56;;;;;;;9.50;6.67;;;;;;;;;;5075568;28;20191;-72
2020/12/19 10:10:22;;;;;;;6.97;6.23;;;;;;;;;;5042629;28;20572;-68
2020/12/19 10:12:47;;;;;;;9.00;6.83;;;;;;;;;;5043040;28;20274;-67
2020/12/19 10:15:16;;;;;;;8.10;6.50;;;;;;;;;;5041465;28;20187;-68
2020/12/19 10:17:41;;;;;;;7.87;6.37;;;;;;;;;;5058181;28;20851;-67
2020/12/19 10:20:06;;;;;;;8.40;6.63;;;;;;;;;;5042661;28;20210;-67
2020/12/19 10:22:31;;;;;;;8.38;6.80;;;;;;;;;;5079078;28;20182;-67
2020/12/19 10:24:57;;;;;;;7.27;6.10;;;;;;;;;;5041517;28;20270;-67
2020/12/19 10:27:22;;;;;;;7.63;6.13;;;;;;;;;;5041760;28;20186;-68
2020/12/19 10:29:47;;;;;;;8.00;6.03;;;;;;;;;;5043322;28;20201;-65
2020/12/19 10:32:12;;;;;;;7.87;6.13;;;;;;;;;;5042080;28;20179;-67
2020/12/19 10:34:38;;;;;;;7.37;5.70;;;;;;;;;;5043038;28;20191;-67
2020/12/19 10:37:03;;;;;;;6.60;4.95;;;;;;;;;;5074751;28;20191;-68
2020/12/19 10:39:29;;;;;;;5.80;5.03;;;;;;;;;;5041624;28;20239;-67
2020/12/19 10:41:54;;;;;;;7.43;5.65;;;;;;;;;;5036598;28;20211;-70
2020/12/19 10:44:19;;;;;;;7.50;5.75;;;;;;;;;;5040942;28;20246;-67
2020/12/19 10:46:45;;;;;;;6.93;5.30;;;;;;;;;;5042197;28;20206;-61
2020/12/19 10:49:10;;;;;;;7.03;5.93;;;;;;;;;;5043132;28;20678;-72
2020/12/19 10:51:35;;;;;;;6.60;5.38;;;;;;;;;;5040757;28;20551;-60
2020/12/19 10:54:01;;;;;;;181.60;15.83;;;;;;;;;;5041909;28;20401;-68
2020/12/19 10:56:26;;;;;;;8.97;6.13;;;;;;;;;;5039418;28;20188;-60
2020/12/19 10:58:51;;;;;;;6.70;5.18;;;;;;;;;;5042937;28;20682;-59
2020/12/19 11:01:17;;;;;;;7.23;5.13;;;;;;;;;;5055861;28;20176;-58
2020/12/19 11:03:43;;;;;;;7.65;5.30;;;;;;;;;;5039428;28;20188;-58
2020/12/19 11:06:16;;;;;;;5.60;4.97;;;;;;;;;;5041440;28;20225;-58
2020/12/19 11:08:42;;;;;;;5.93;4.70;;;;;;;;;;5034393;28;20194;-59
2020/12/19 11:11:08;;;;;;;6.97;5.35;;;;;;;;;;5042359;28;20783;-59
2020/12/19 11:13:33;;;;;;;6.50;5.20;;;;;;;;;;5045995;28;20207;-61
2020/12/19 11:16:00;;;;;;;5.77;5.13;;;;;;;;;;5044838;28;20653;-64
2020/12/19 11:18:25;;;;;;;8.63;4.85;;;;;;;;;;5045237;28;20187;-63
2020/12/19 11:20:50;;;;;;;6.68;5.65;;;;;;;;;;5043998;28;20209;-62
2020/12/19 11:23:16;;;;;;;6.55;5.05;;;;;;;;;;5042967;28;20188;-63
2020/12/19 11:25:41;;;;;;;5.80;5.10;;;;;;;;;;5044886;28;20202;-62
2020/12/19 11:28:07;;;;;;;6.43;4.97;;;;;;;;;;5045774;28;20198;-60
2020/12/19 11:30:32;;;;;;;5.65;4.57;;;;;;;;;;5045790;28;20657;-65
2020/12/19 11:32:57;;;;;;;6.05;4.28;;;;;;;;;;5046453;28;20198;-66
2020/12/19 11:35:22;;;;;;;6.38;4.45;;;;;;;;;;5038026;28;20290;-66
2020/12/19 11:37:48;;;;;;;6.38;5.68;;;;;;;;;;5040724;28;20227;-65
2020/12/19 11:40:13;;;;;;;6.22;4.72;;;;;;;;;;5045638;28;20302;-64
2020/12/19 11:42:38;;;;;;;13.88;4.90;;;;;;;;;;5044938;28;20204;-64
2020/12/19 11:45:04;;;;;;;5.50;4.32;;;;;;;;;;5044884;28;20274;-60
2020/12/19 11:47:29;;;;;;;5.80;5.07;;;;;;;;;;5045937;28;20313;-67
2020/12/19 11:49:54;;;;;;;6.03;4.80;;;;;;;;;;5045614;28;20199;-69
2020/12/19 11:52:20;;;;;;;6.18;4.28;;;;;;;;;;5045564;28;20187;-69
2020/12/19 11:54:45;;;;;;;6.85;4.63;;;;;;;;;;5043307;28;20248;-69
2020/12/19 11:57:10;;;;;;;5.60;4.30;;;;;;;;;;5044856;28;20938;-67
2020/12/19 11:59:36;;;;;;;5.30;4.07;;;;;;;;;;5042454;28;20706;-71
2020/12/19 12:02:02;;;;;;;5.93;4.20;;;;;;;;;;5034559;28;20635;-70
2020/12/19 12:04:27;;;;;;;5.60;4.13;;;;;;;;;;5042827;28;20195;-69
2020/12/19 12:06:53;;;;;;;5.18;3.88;;;;;;;;;;5044346;28;20661;-69
2020/12/19 12:09:18;;;;;;;5.22;3.17;;;;;;;;;;5046288;28;20211;-71
2020/12/19 12:11:43;;;;;;;6.50;4.22;;;;;;;;;;5045882;28;20187;-72
2020/12/19 12:14:09;;;;;;;4.85;3.63;;;;;;;;;;5044646;28;20278;-67
2020/12/19 12:16:34;;;;;;;4.60;3.97;;;;;;;;;;5045078;28;20233;-67
2020/12/19 12:18:59;;;;;;;5.25;3.80;;;;;;;;;;5042719;28;20183;-66
2020/12/19 12:21:33;;;;;;;6.65;4.47;;;;;;;;;;5048827;28;20199;-67
2020/12/19 12:23:58;;;;;;;4.47;3.90;;;;;;;;;;5040729;28;20199;-67
2020/12/19 12:26:24;;;;;;;6.88;5.30;;;;;;;;;;5044894;28;20199;-66
2020/12/19 12:28:50;;;;;;;4.43;3.90;;;;;;;;;;5045370;28;20210;-74
2020/12/19 12:31:21;;;;;;;5.25;3.65;;;;;;;;;;5045312;28;20190;-73
2020/12/19 12:33:47;;;;;;;5.90;4.47;;;;;;;;;;5053386;28;20182;-72
2020/12/19 12:36:12;;;;;;;6.82;4.50;;;;;;;;;;5043946;28;20171;-70
2020/12/19 12:38:37;;;;;;;5.97;4.33;;;;;;;;;;5074733;28;20443;-72
2020/12/19 12:41:03;;;;;;;4.90;4.13;;;;;;;;;;5044697;28;20247;-72
2020/12/19 12:43:29;;;;;;;5.63;4.03;;;;;;;;;;5030586;28;20299;-72
2020/12/19 12:45:54;;;;;;;6.70;4.40;;;;;;;;;;5042011;28;20572;-72
2020/12/19 12:48:19;;;;;;;8.57;4.70;;;;;;;;;;5042618;28;20191;-72
2020/12/19 12:50:45;;;;;;;5.53;4.43;;;;;;;;;;5059444;28;20219;-72
2020/12/19 12:53:10;;;;;;;5.32;4.40;;;;;;;;;;5038653;28;20184;-73
2020/12/19 12:55:35;;;;;;;5.90;4.47;;;;;;;;;;5044434;28;20187;-72
2020/12/19 12:58:00;;;;;;;6.53;4.50;;;;;;;;;;5045173;28;20609;-73
2020/12/19 13:00:26;;;;;;;6.73;4.37;;;;;;;;;;5044409;28;20218;-71
2020/12/19 13:02:51;;;;;;;6.80;4.87;;;;;;;;;;5042907;28;20188;-71
2020/12/19 13:05:16;;;;;;;6.78;4.65;;;;;;;;;;5044237;28;20306;-71
2020/12/19 13:07:42;;;;;;;6.55;4.15;;;;;;;;;;5044957;28;20843;-72
2020/12/19 13:10:07;;;;;;;6.35;4.40;;;;;;;;;;5042493;28;20253;-71
2020/12/19 13:12:33;;;;;;;7.35;4.20;;;;;;;;;;5044153;28;20697;-68
2020/12/19 13:14:58;;;;;;;5.97;4.20;;;;;;;;;;5044406;28;20190;-61
2020/12/19 13:17:23;;;;;;;5.78;3.85;;;;;;;;;;5043652;28;20190;-63
2020/12/19 13:19:49;;;;;;;5.30;4.10;;;;;;;;;;5043182;28;21123;-62
2020/12/19 13:22:14;;;;;;;6.53;4.57;;;;;;;;;;5041437;28;20251;-65
2020/12/19 13:24:39;;;;;;;6.57;4.43;;;;;;;;;;5042864;28;20409;-63
2020/12/19 13:27:04;;;;;;;7.90;5.03;;;;;;;;;;5043611;28;20202;-62
2020/12/19 13:29:32;;;;;;;5.27;4.60;;;;;;;;;;5042291;28;20597;-62
2020/12/19 13:31:57;;;;;;;5.93;4.53;;;;;;;;;;5043932;28;20217;-60
2020/12/19 13:34:23;;;;;;;5.17;4.20;;;;;;;;;;5043480;28;20182;-62
2020/12/19 13:36:48;;;;;;;5.38;4.47;;;;;;;;;;5043194;28;20666;-63
2020/12/19 13:39:13;;;;;;;6.03;4.80;;;;;;;;;;5043049;28;20260;-65
2020/12/19 13:41:39;;;;;;;5.43;4.83;;;;;;;;;;5042928;28;20186;-64
2020/12/19 13:44:04;;;;;;;7.90;4.30;;;;;;;;;;5043074;28;20658;-63
2020/12/19 13:46:29;;;;;;;5.53;4.37;;;;;;;;;;5042106;28;20585;-62
2020/12/19 13:48:55;;;;;;;5.70;4.20;;;;;;;;;;5041600;28;20179;-62
2020/12/19 13:51:30;;;;;;;7.90;4.47;;;;;;;;;;5075163;28;20189;-61
2020/12/19 13:53:56;;;;;;;8.67;4.80;;;;;;;;;;5042569;28;20277;-62
2020/12/19 13:56:21;;;;;;;6.90;5.10;;;;;;;;;;5042791;28;20214;-62
2020/12/19 13:58:47;;;;;;;5.97;5.18;;;;;;;;;;5042052;28;20226;-62
2020/12/19 14:01:13;;;;;;;6.57;5.40;;;;;;;;;;5057937;28;20186;-62
2020/12/19 14:03:41;;;;;;;6.70;5.27;;;;;;;;;;5043190;28;20677;-62
2020/12/19 14:06:06;;;;;;;7.67;5.57;;;;;;;;;;5041887;28;20202;-62
2020/12/19 14:08:31;;;;;;;6.87;5.17;;;;;;;;;;5041771;28;20183;-62
2020/12/19 14:10:57;;;;;;;6.87;5.70;;;;;;;;;;5043259;28;20210;-66
2020/12/19 14:13:22;;;;;;;6.83;5.93;;;;;;;;;;5043250;28;20246;-63
2020/12/19 14:15:47;;;;;;;7.93;6.00;;;;;;;;;;5040412;28;20206;-63
2020/12/19 14:18:12;;;;;;;6.30;5.30;;;;;;;;;;5035553;28;20245;-63
2020/12/19 14:20:39;;;;;;;7.70;5.63;;;;;;;;;;5034613;28;20228;-67